Time;durP1;ratioP1;P1;durP2;ratioP2;P2;SDS_P1;SDS_P2;PMS_P1;PMS_P2;Temp;Humidity;BMP_temperature;BMP_pressure;BME280_temperature;BME280_humidity;BME280_pressure;Samples;Min_cycle;Max_cycle;Signal;HPM_P1;HPM_P2
2023/03/15 00:02:07;;;;;;;8.48;1.42;;;4.40;99.90;;;;;;4999328;28;20033;-82
2023/03/15 00:04:32;;;;;;;9.32;1.50;;;4.40;99.90;;;;;;5013994;28;20026;-82
2023/03/15 00:06:58;;;;;;;8.90;1.75;;;4.40;99.90;;;;;;5009496;28;20029;-82
2023/03/15 00:09:24;;;;;;;8.15;1.60;;;4.40;99.90;;;;;;4997183;28;20919;-82
2023/03/15 00:11:53;;;;;;;5.10;1.98;;;4.40;99.90;;;;;;4999150;28;20448;-83
2023/03/15 00:14:20;;;;;;;12.55;2.40;;;4.30;99.90;;;;;;4994817;28;20048;-82
2023/03/15 00:16:48;;;;;;;6.72;2.33;;;4.30;99.90;;;;;;4998864;28;20909;-84
2023/03/15 00:19:16;;;;;;;9.95;2.90;;;4.20;99.90;;;;;;4997596;28;20485;-82
2023/03/15 00:21:42;;;;;;;4.28;2.75;;;4.20;99.90;;;;;;4991138;28;20220;-87
2023/03/15 00:24:11;;;;;;;14.00;2.97;;;4.20;99.90;;;;;;5002878;28;20303;-83
2023/03/15 00:26:37;;;;;;;11.98;3.15;;;4.30;99.90;;;;;;5012073;28;20489;-84
2023/03/15 00:29:04;;;;;;;14.35;3.72;;;4.30;99.90;;;;;;4997662;28;20079;-84
2023/03/15 00:31:29;;;;;;;12.80;3.40;;;4.40;99.90;;;;;;5002270;28;20033;-83
2023/03/15 00:33:55;;;;;;;13.48;2.88;;;4.40;99.90;;;;;;5002158;28;20029;-83
2023/03/15 00:36:22;;;;;;;9.75;2.67;;;4.40;99.90;;;;;;5021006;28;20033;-86
2023/03/15 00:38:48;;;;;;;7.13;2.47;;;4.30;99.90;;;;;;5001812;28;20026;-84
2023/03/15 00:41:16;;;;;;;7.00;2.63;;;4.40;99.90;;;;;;4998821;28;20031;-83
2023/03/15 00:43:42;;;;;;;5.53;2.42;;;4.40;99.90;;;;;;5015898;28;20068;-83
2023/03/15 00:46:08;;;;;;;2.60;1.90;;;4.40;99.90;;;;;;5004627;28;20030;-83
2023/03/15 00:48:34;;;;;;;4.70;2.42;;;4.40;99.90;;;;;;5018413;28;20068;-83
2023/03/15 00:51:07;;;;;;;6.30;2.53;;;4.50;99.90;;;;;;5001787;28;20057;-83
2023/03/15 00:53:34;;;;;;;6.10;1.77;;;4.60;99.90;;;;;;5005111;28;20025;-84
2023/03/15 00:56:05;;;;;;;8.27;2.30;;;4.50;99.90;;;;;;5015158;28;20033;-83
2023/03/15 00:58:33;;;;;;;4.22;1.75;;;4.60;99.90;;;;;;5000781;28;21145;-84
2023/03/15 01:01:00;;;;;;;4.50;2.30;;;4.50;99.90;;;;;;5014584;28;20045;-84
2023/03/15 01:03:29;;;;;;;5.18;1.77;;;4.40;99.90;;;;;;5021739;28;20021;-83
2023/03/15 01:05:54;;;;;;;6.65;2.10;;;4.40;99.90;;;;;;5008259;28;20021;-83
2023/03/15 01:08:23;;;;;;;3.72;1.88;;;4.40;99.90;;;;;;4996474;28;20499;-83
2023/03/15 01:10:51;;;;;;;8.77;2.05;;;4.40;99.90;;;;;;5016208;28;20390;-83
2023/03/15 01:13:16;;;;;;;5.78;1.75;;;4.40;99.90;;;;;;5000984;28;20218;-83
2023/03/15 01:15:48;;;;;;;4.63;1.95;;;4.50;99.90;;;;;;5014206;28;20022;-82
2023/03/15 01:18:14;;;;;;;4.07;2.30;;;4.50;99.90;;;;;;5020401;28;20021;-83
2023/03/15 01:20:43;;;;;;;2.35;1.67;;;4.50;99.90;;;;;;5008855;28;20044;-82
2023/03/15 01:23:09;;;;;;;5.07;2.67;;;4.60;99.90;;;;;;4997383;28;20046;-83
2023/03/15 01:25:34;;;;;;;4.10;2.70;;;4.60;99.90;;;;;;5014886;28;20064;-83
2023/03/15 01:28:00;;;;;;;9.90;2.75;;;4.50;99.90;;;;;;5014242;28;20394;-82
2023/03/15 01:30:26;;;;;;;4.88;2.50;;;4.60;99.90;;;;;;5014297;28;20017;-83
2023/03/15 01:32:53;;;;;;;4.18;2.28;;;4.60;99.90;;;;;;5004817;28;20081;-83
2023/03/15 01:35:19;;;;;;;7.93;2.60;;;4.60;99.90;;;;;;5018044;28;20033;-82
2023/03/15 01:37:47;;;;;;;6.47;1.85;;;4.70;99.90;;;;;;5015356;28;20018;-82
2023/03/15 01:40:13;;;;;;;4.90;1.85;;;4.70;99.90;;;;;;5019659;28;20041;-82
2023/03/15 01:42:53;;;;;;;3.45;1.75;;;4.70;99.90;;;;;;5007142;28;20056;-83
2023/03/15 01:45:52;;;;;;;2.80;1.90;;;4.70;99.90;;;;;;5039607;28;20026;-83
2023/03/15 01:48:22;;;;;;;4.85;2.17;;;4.60;99.90;;;;;;5033763;28;20044;-86
2023/03/15 01:50:49;;;;;;;1.58;1.48;;;4.60;99.90;;;;;;5019561;28;20535;-83
2023/03/15 01:53:15;;;;;;;1.73;1.27;;;4.60;99.90;;;;;;5018870;28;20030;-83
2023/03/15 01:55:41;;;;;;;1.73;1.50;;;4.60;99.90;;;;;;5004797;28;20061;-82
2023/03/15 01:58:07;;;;;;;1.60;1.50;;;4.60;99.90;;;;;;5019145;28;20072;-83
2023/03/15 02:00:39;;;;;;;2.20;1.88;;;4.50;99.90;;;;;;5005381;28;20026;-86
2023/03/15 02:03:08;;;;;;;1.83;1.73;;;4.50;99.90;;;;;;5019806;28;20076;-82
2023/03/15 02:05:44;;;;;;;3.33;2.33;;;4.50;99.90;;;;;;5001641;28;20394;-82
2023/03/15 02:08:11;;;;;;;2.38;1.52;;;4.50;99.90;;;;;;5011495;28;20045;-82
2023/03/15 02:10:44;;;;;;;2.75;1.45;;;4.50;99.90;;;;;;5004239;28;20038;-82
2023/03/15 02:13:14;;;;;;;2.78;2.03;;;4.50;99.90;;;;;;4998417;28;20116;-82
2023/03/15 02:15:45;;;;;;;3.65;2.17;;;4.50;99.90;;;;;;5004260;28;20028;-82
2023/03/15 02:18:11;;;;;;;2.33;1.70;;;4.50;99.90;;;;;;4996451;28;20462;-83
2023/03/15 02:20:52;;;;;;;1.85;1.63;;;4.40;99.90;;;;;;5010682;28;20518;-82
2023/03/15 02:23:20;;;;;;;4.95;1.65;;;4.30;99.90;;;;;;5003578;28;20034;-83
2023/03/15 02:25:55;;;;;;;1.88;1.52;;;4.30;99.90;;;;;;5015083;28;20533;-83
2023/03/15 02:28:22;;;;;;;3.10;1.50;;;4.30;99.90;;;;;;4999640;28;20517;-83
2023/03/15 02:30:48;;;;;;;3.42;2.00;;;4.20;99.90;;;;;;5000241;28;20052;-83
2023/03/15 02:33:26;;;;;;;2.03;1.85;;;4.30;99.90;;;;;;5004884;28;20041;-83
2023/03/15 02:35:52;;;;;;;2.10;1.90;;;4.30;99.90;;;;;;5015111;28;20022;-81
2023/03/15 02:38:18;;;;;;;2.10;1.90;;;4.30;99.90;;;;;;5015125;28;20029;-88
2023/03/15 02:40:45;;;;;;;2.00;1.90;;;4.30;99.90;;;;;;4998591;28;20032;-82
2023/03/15 02:43:23;;;;;;;3.35;1.65;;;4.30;99.90;;;;;;4994729;28;20027;-82
2023/03/15 02:45:49;;;;;;;2.80;1.67;;;4.30;99.90;;;;;;4999620;28;20485;-82
2023/03/15 02:48:19;;;;;;;2.78;1.65;;;4.30;99.90;;;;;;5000318;28;20067;-81
2023/03/15 02:50:44;;;;;;;3.15;1.80;;;4.30;99.90;;;;;;5014800;28;20017;-83
2023/03/15 02:53:11;;;;;;;3.00;1.75;;;4.20;99.90;;;;;;5004283;28;20472;-82
2023/03/15 02:55:37;;;;;;;3.72;2.05;;;4.30;99.90;;;;;;5013267;28;20447;-82
2023/03/15 02:58:04;;;;;;;2.03;1.70;;;4.20;99.90;;;;;;5011216;28;20511;-83
2023/03/15 03:00:30;;;;;;;2.30;2.10;;;4.20;99.90;;;;;;5012550;28;20133;-83
2023/03/15 03:02:56;;;;;;;2.75;2.10;;;4.20;99.90;;;;;;4998569;28;20113;-82
2023/03/15 03:05:22;;;;;;;2.40;2.30;;;4.30;99.90;;;;;;4995192;28;20030;-82
2023/03/15 03:07:49;;;;;;;2.70;2.15;;;4.30;99.90;;;;;;5018924;28;20167;-82
2023/03/15 03:10:16;;;;;;;4.18;2.20;;;4.30;99.90;;;;;;5014248;28;20381;-82
2023/03/15 03:12:42;;;;;;;2.65;2.42;;;4.30;99.90;;;;;;5001188;28;20029;-83
2023/03/15 03:15:10;;;;;;;4.75;2.45;;;4.30;99.90;;;;;;5014134;28;20385;-82
2023/03/15 03:17:37;;;;;;;3.58;2.55;;;4.40;99.90;;;;;;5014290;28;20049;-82
2023/03/15 03:20:08;;;;;;;2.65;2.45;;;4.50;99.90;;;;;;4997269;28;20037;-82
2023/03/15 03:22:36;;;;;;;3.28;2.97;;;4.50;99.90;;;;;;5003692;28;20022;-82
2023/03/15 03:25:03;;;;;;;3.00;2.65;;;4.50;99.90;;;;;;5001961;28;20037;-82
2023/03/15 03:27:29;;;;;;;2.65;2.45;;;4.40;99.90;;;;;;5014209;28;20026;-83
2023/03/15 03:29:54;;;;;;;4.57;2.20;;;4.40;99.90;;;;;;5013175;28;20410;-82
2023/03/15 03:32:23;;;;;;;3.78;2.95;;;4.40;99.90;;;;;;4996208;28;20116;-83
2023/03/15 03:34:48;;;;;;;4.07;2.30;;;4.30;99.90;;;;;;4996391;28;20058;-83
2023/03/15 03:37:20;;;;;;;2.38;2.20;;;4.30;99.90;;;;;;5013018;28;20018;-83
2023/03/15 03:39:46;;;;;;;3.28;2.47;;;4.20;99.90;;;;;;5005753;28;20025;-82
2023/03/15 03:42:13;;;;;;;2.30;1.95;;;4.20;99.90;;;;;;5012579;28;20466;-82
2023/03/15 03:44:40;;;;;;;2.80;2.20;;;4.20;99.90;;;;;;4994931;28;20041;-83
2023/03/15 03:47:06;;;;;;;5.43;2.47;;;4.20;99.90;;;;;;5002740;28;20095;-82
2023/03/15 03:49:34;;;;;;;5.32;2.20;;;4.20;99.90;;;;;;5010144;28;20034;-83
2023/03/15 03:52:01;;;;;;;4.00;2.42;;;4.30;99.90;;;;;;4994514;28;20026;-82
2023/03/15 03:54:27;;;;;;;5.72;2.40;;;4.30;99.90;;;;;;5003363;28;20355;-82
2023/03/15 03:56:52;;;;;;;2.47;2.15;;;4.40;99.90;;;;;;4999786;28;20021;-83
2023/03/15 03:59:18;;;;;;;2.13;1.67;;;4.40;99.90;;;;;;5012626;28;20552;-83
2023/03/15 04:01:44;;;;;;;2.35;2.00;;;4.30;99.90;;;;;;5016973;28;20044;-82
2023/03/15 04:04:12;;;;;;;3.95;1.98;;;4.20;99.90;;;;;;5032027;28;20014;-83
2023/03/15 04:06:44;;;;;;;2.03;1.80;;;4.20;99.90;;;;;;5011694;28;20541;-82
2023/03/15 04:09:14;;;;;;;2.20;2.00;;;4.10;99.90;;;;;;5005545;28;20026;-82
2023/03/15 04:11:44;;;;;;;2.90;1.70;;;4.10;99.90;;;;;;5008121;28;20029;-82
2023/03/15 04:14:10;;;;;;;3.35;1.83;;;4.00;99.90;;;;;;5031496;28;20052;-82
2023/03/15 04:16:36;;;;;;;2.40;1.73;;;4.00;99.90;;;;;;5030889;28;20022;-83
2023/03/15 04:19:06;;;;;;;4.28;1.73;;;4.00;99.90;;;;;;5023298;28;20021;-83
2023/03/15 04:21:33;;;;;;;2.05;1.42;;;4.00;99.90;;;;;;5015629;28;20026;-84
2023/03/15 04:24:00;;;;;;;1.90;1.60;;;4.00;99.90;;;;;;5040764;28;20040;-83
2023/03/15 04:26:27;;;;;;;3.78;1.77;;;3.80;99.90;;;;;;5019822;28;20055;-83
2023/03/15 04:28:57;;;;;;;3.00;1.60;;;3.80;99.90;;;;;;5028113;28;20030;-84
2023/03/15 04:31:26;;;;;;;1.95;1.52;;;3.70;99.90;;;;;;5024675;28;20048;-84
2023/03/15 04:33:55;;;;;;;3.80;2.03;;;3.70;99.90;;;;;;5019365;28;20029;-83
2023/03/15 04:36:24;;;;;;;2.88;1.70;;;3.70;99.90;;;;;;5017995;28;20013;-83
2023/03/15 04:38:50;;;;;;;2.50;1.98;;;3.60;99.90;;;;;;5005132;28;20018;-83
2023/03/15 04:41:17;;;;;;;3.33;1.83;;;3.60;99.90;;;;;;5000344;28;20120;-84
2023/03/15 04:43:43;;;;;;;3.08;2.35;;;3.50;99.90;;;;;;5015602;28;20041;-83
2023/03/15 04:46:09;;;;;;;5.50;2.22;;;3.60;99.90;;;;;;5003389;28;20029;-83
2023/03/15 04:48:38;;;;;;;2.10;1.90;;;3.50;99.90;;;;;;5014723;28;20022;-85
2023/03/15 04:51:04;;;;;;;4.25;2.13;;;3.50;99.90;;;;;;5004099;28;20106;-83
2023/03/15 04:53:32;;;;;;;5.88;2.50;;;3.50;99.90;;;;;;4999069;28;20049;-83
2023/03/15 04:55:58;;;;;;;3.85;2.70;;;3.60;99.90;;;;;;5018944;28;20021;-84
2023/03/15 04:58:23;;;;;;;3.33;2.38;;;3.60;99.90;;;;;;5018061;28;20415;-83
2023/03/15 05:00:49;;;;;;;2.17;1.77;;;3.70;99.90;;;;;;5005525;28;20389;-84
2023/03/15 05:03:15;;;;;;;2.72;2.28;;;3.70;99.90;;;;;;4993439;28;20152;-83
2023/03/15 05:05:40;;;;;;;4.35;2.08;;;3.70;99.90;;;;;;5015592;28;20037;-83
2023/03/15 05:08:06;;;;;;;3.30;2.58;;;3.70;99.90;;;;;;5003627;28;20116;-83
2023/03/15 05:10:32;;;;;;;3.70;2.60;;;3.70;99.90;;;;;;4999016;28;20493;-84
2023/03/15 05:12:57;;;;;;;2.47;2.05;;;3.70;99.90;;;;;;5001385;28;20033;-83
2023/03/15 05:15:23;;;;;;;5.07;2.38;;;3.70;99.90;;;;;;5003578;28;20018;-82
2023/03/15 05:17:49;;;;;;;5.28;2.88;;;3.70;99.90;;;;;;5018658;28;20021;-83
2023/03/15 05:20:17;;;;;;;5.68;2.60;;;3.60;99.90;;;;;;5006100;28;20031;-83
2023/03/15 05:22:43;;;;;;;3.05;2.42;;;3.60;99.90;;;;;;5000847;28;20018;-83
2023/03/15 05:25:10;;;;;;;4.22;2.92;;;3.60;99.90;;;;;;5002247;28;20036;-83
2023/03/15 05:27:38;;;;;;;3.67;3.10;;;3.50;99.90;;;;;;4998005;28;20392;-83
2023/03/15 05:30:06;;;;;;;3.97;2.83;;;3.40;99.90;;;;;;5006484;28;20076;-83
2023/03/15 05:32:38;;;;;;;5.68;3.67;;;3.40;99.90;;;;;;5003062;28;20053;-83
2023/03/15 05:35:05;;;;;;;5.95;3.63;;;3.40;99.90;;;;;;5028577;28;20053;-83
2023/03/15 05:37:31;;;;;;;5.00;3.65;;;3.40;99.90;;;;;;5008251;28;20030;-83
2023/03/15 05:39:58;;;;;;;8.75;4.57;;;3.40;99.90;;;;;;4998342;28;20036;-83
2023/03/15 05:42:25;;;;;;;6.57;3.80;;;3.40;99.90;;;;;;5015801;28;20075;-83
2023/03/15 05:44:52;;;;;;;8.35;4.82;;;3.30;99.90;;;;;;5016165;28;20025;-84
2023/03/15 05:47:21;;;;;;;6.20;4.05;;;3.30;99.90;;;;;;5000216;28;20857;-83
2023/03/15 05:49:47;;;;;;;9.35;5.13;;;3.20;99.90;;;;;;5004076;28;20079;-84
2023/03/15 05:52:13;;;;;;;6.72;4.93;;;3.30;99.90;;;;;;5003404;28;20520;-82
2023/03/15 05:54:39;;;;;;;6.63;4.60;;;3.20;99.90;;;;;;4996880;28;20029;-82
2023/03/15 05:57:05;;;;;;;7.15;4.63;;;3.20;99.90;;;;;;5001153;28;20061;-81
2023/03/15 05:59:31;;;;;;;7.63;5.00;;;3.20;99.90;;;;;;5005003;28;20030;-82
2023/03/15 06:01:57;;;;;;;6.78;4.82;;;3.20;99.90;;;;;;5001807;28;20033;-85
2023/03/15 06:04:23;;;;;;;9.45;5.07;;;3.30;99.90;;;;;;5003070;28;20239;-83
2023/03/15 06:06:49;;;;;;;8.63;5.57;;;3.20;99.90;;;;;;5012943;28;20448;-83
2023/03/15 06:09:18;;;;;;;14.40;5.57;;;3.20;99.90;;;;;;4995112;28;20029;-83
2023/03/15 06:11:43;;;;;;;16.48;5.55;;;3.20;99.90;;;;;;5002509;28;20072;-85
2023/03/15 06:14:09;;;;;;;12.43;5.82;;;3.30;99.90;;;;;;5005530;28;20025;-84
2023/03/15 06:16:35;;;;;;;10.63;5.90;;;3.30;99.90;;;;;;5006242;28;20028;-85
2023/03/15 06:19:00;;;;;;;10.70;6.03;;;3.30;99.90;;;;;;5000134;28;20096;-84
2023/03/15 06:21:26;;;;;;;8.80;5.78;;;3.30;99.90;;;;;;5017006;28;20068;-84
2023/03/15 06:23:52;;;;;;;15.38;6.40;;;3.40;99.90;;;;;;5003026;28;20020;-85
2023/03/15 06:26:18;;;;;;;9.90;5.95;;;3.40;99.90;;;;;;5019828;28;20018;-85
2023/03/15 06:28:44;;;;;;;13.20;6.97;;;3.50;99.90;;;;;;5016247;28;20108;-86
2023/03/15 06:31:13;;;;;;;8.18;5.65;;;3.60;99.90;;;;;;5016429;28;20417;-83
2023/03/15 06:33:39;;;;;;;13.40;7.32;;;3.60;99.90;;;;;;5000605;28;20079;-83
2023/03/15 06:36:05;;;;;;;10.43;6.68;;;3.60;99.90;;;;;;4999113;28;20468;-84
2023/03/15 06:38:31;;;;;;;12.38;6.60;;;3.60;99.90;;;;;;5016380;28;20026;-82
2023/03/15 06:41:01;;;;;;;16.33;7.00;;;3.70;99.90;;;;;;5013263;28;20429;-82
2023/03/15 06:43:27;;;;;;;9.95;6.03;;;3.70;99.90;;;;;;5004149;28;20369;-83
2023/03/15 06:45:54;;;;;;;10.95;7.00;;;3.80;99.90;;;;;;5016368;28;20496;-82
2023/03/15 06:48:23;;;;;;;15.60;7.13;;;3.80;99.90;;;;;;5015776;28;20034;-82
2023/03/15 06:50:49;;;;;;;12.23;7.00;;;3.80;99.90;;;;;;5002292;28;20121;-83
2023/03/15 06:53:15;;;;;;;12.48;7.00;;;3.90;99.90;;;;;;5009601;28;20389;-81
2023/03/15 06:55:40;;;;;;;15.98;7.65;;;4.00;99.90;;;;;;4997624;28;20393;-84
2023/03/15 06:58:08;;;;;;;16.90;7.90;;;4.00;99.90;;;;;;4994886;28;20057;-83
2023/03/15 07:00:35;;;;;;;12.95;7.60;;;4.10;99.90;;;;;;5012765;28;20450;-85
2023/03/15 07:03:00;;;;;;;12.35;7.25;;;4.20;99.90;;;;;;5006362;28;20111;-85
2023/03/15 07:05:26;;;;;;;12.00;7.28;;;4.30;99.90;;;;;;5007884;28;20497;-85
2023/03/15 07:07:52;;;;;;;13.10;7.13;;;4.30;99.90;;;;;;5015239;28;20029;-85
2023/03/15 07:10:18;;;;;;;15.32;6.97;;;4.30;99.90;;;;;;4996361;28;20367;-84
2023/03/15 07:12:43;;;;;;;11.70;7.07;;;4.30;99.90;;;;;;4998079;28;20078;-82
2023/03/15 07:15:09;;;;;;;11.52;6.93;;;4.50;99.90;;;;;;5014505;28;20021;-84
2023/03/15 07:17:38;;;;;;;14.57;8.40;;;4.60;99.90;;;;;;5017295;28;20477;-83
2023/03/15 07:20:07;;;;;;;14.15;7.72;;;4.70;99.90;;;;;;5014549;28;20096;-84
2023/03/15 07:22:33;;;;;;;15.23;7.28;;;4.70;99.90;;;;;;5002463;28;20037;-81
2023/03/15 07:24:59;;;;;;;15.40;6.97;;;4.80;99.90;;;;;;5001456;28;20021;-83
2023/03/15 07:27:25;;;;;;;15.15;7.22;;;4.80;99.90;;;;;;5002000;28;20107;-84
2023/03/15 07:29:54;;;;;;;13.50;7.35;;;4.80;99.90;;;;;;5015387;28;20410;-83
2023/03/15 07:32:20;;;;;;;14.23;7.55;;;4.80;99.90;;;;;;4996176;28;20033;-83
2023/03/15 07:34:45;;;;;;;17.35;8.45;;;4.90;99.90;;;;;;5004106;28;20099;-83
2023/03/15 07:37:13;;;;;;;15.60;7.72;;;4.90;99.90;;;;;;5010817;28;20034;-83
2023/03/15 07:39:40;;;;;;;18.88;7.53;;;5.10;99.90;;;;;;5010521;28;20095;-84
2023/03/15 07:42:06;;;;;;;12.57;6.82;;;5.20;99.90;;;;;;5010648;28;20084;-83
2023/03/15 07:44:32;;;;;;;14.88;7.43;;;5.30;99.90;;;;;;5001221;28;20017;-83
2023/03/15 07:46:57;;;;;;;19.05;7.88;;;5.50;99.90;;;;;;5013640;28;20378;-85
2023/03/15 07:49:25;;;;;;;14.80;6.95;;;5.50;99.90;;;;;;5002446;28;20049;-83
2023/03/15 07:51:53;;;;;;;15.13;7.57;;;5.60;99.90;;;;;;5003136;28;20045;-80
2023/03/15 07:54:19;;;;;;;14.32;7.25;;;5.60;99.90;;;;;;4994670;28;20033;-82
2023/03/15 07:56:44;;;;;;;11.48;6.72;;;5.80;99.90;;;;;;4993567;28;20030;-81
2023/03/15 07:59:10;;;;;;;13.75;6.82;;;5.70;99.90;;;;;;5012853;28;20069;-82
2023/03/15 08:01:36;;;;;;;13.02;6.95;;;5.70;99.90;;;;;;4994485;28;20508;-83
2023/03/15 08:04:02;;;;;;;11.23;7.15;;;5.80;99.90;;;;;;5013006;28;20109;-83
2023/03/15 08:06:27;;;;;;;12.88;7.47;;;5.90;99.90;;;;;;5014246;28;20088;-84
2023/03/15 08:08:53;;;;;;;10.13;6.68;;;6.10;99.90;;;;;;5014028;28;20026;-84
2023/03/15 08:11:19;;;;;;;16.50;6.88;;;6.00;99.90;;;;;;4997548;28;20056;-85
2023/03/15 08:13:46;;;;;;;11.05;6.72;;;6.00;99.90;;;;;;5001033;28;20028;-85
2023/03/15 08:16:12;;;;;;;13.57;6.22;;;6.20;99.90;;;;;;5004176;28;20045;-84
2023/03/15 08:18:40;;;;;;;15.05;6.38;;;6.30;99.90;;;;;;5004758;28;20334;-84
2023/03/15 08:21:05;;;;;;;16.83;6.32;;;6.20;99.90;;;;;;5032393;28;20092;-84
2023/03/15 08:23:31;;;;;;;15.43;7.07;;;6.30;99.90;;;;;;5002282;28;20029;-81
2023/03/15 08:25:57;;;;;;;17.92;6.20;;;6.50;99.90;;;;;;5002823;28;20022;-84
2023/03/15 08:28:22;;;;;;;9.68;5.50;;;6.50;99.90;;;;;;5001137;28;20065;-85
2023/03/15 08:30:48;;;;;;;10.88;5.75;;;6.60;99.90;;;;;;5002611;28;20125;-84
2023/03/15 08:33:13;;;;;;;9.75;5.55;;;6.60;99.90;;;;;;5013556;28;20030;-84
2023/03/15 08:35:40;;;;;;;9.60;5.40;;;6.60;99.90;;;;;;4998750;28;20015;-83
2023/03/15 08:38:06;;;;;;;13.23;4.82;;;6.80;99.90;;;;;;5014069;28;20030;-84
2023/03/15 08:40:34;;;;;;;11.43;5.18;;;6.80;99.90;;;;;;5017988;28;20056;-83
2023/03/15 08:42:59;;;;;;;11.40;4.80;;;6.90;99.90;;;;;;5002854;28;20030;-83
2023/03/15 08:45:26;;;;;;;8.43;4.57;;;6.90;99.90;;;;;;5003772;28;20052;-81
2023/03/15 08:47:58;;;;;;;10.15;5.18;;;7.10;99.90;;;;;;4996204;28;20057;-84
2023/03/15 08:50:26;;;;;;;10.93;5.35;;;7.50;99.90;;;;;;4998325;28;20021;-79
2023/03/15 08:52:52;;;;;;;10.48;5.00;;;7.50;99.90;;;;;;5020190;28;20044;-84
2023/03/15 08:55:17;;;;;;;11.50;4.97;;;7.50;99.90;;;;;;5011200;28;20022;-85
2023/03/15 08:57:43;;;;;;;11.00;4.82;;;7.90;99.90;;;;;;5008895;28;20032;-84
2023/03/15 09:00:16;;;;;;;9.00;4.68;;;8.00;99.90;;;;;;5006269;28;20061;-85
2023/03/15 09:02:42;;;;;;;7.50;4.25;;;8.20;99.90;;;;;;5003138;28;20044;-82
2023/03/15 09:05:10;;;;;;;10.95;4.00;;;8.50;99.90;;;;;;5025152;28;20489;-83
2023/03/15 09:07:37;;;;;;;11.02;4.57;;;8.80;99.90;;;;;;5021701;28;20153;-83
2023/03/15 09:10:04;;;;;;;6.93;3.92;;;9.20;99.90;;;;;;5000598;28;20409;-83
2023/03/15 09:12:30;;;;;;;6.57;4.07;;;9.40;99.90;;;;;;5006257;28;20037;-82
2023/03/15 09:14:55;;;;;;;9.20;4.30;;;9.60;99.90;;;;;;5002236;28;20155;-79
2023/03/15 09:17:26;;;;;;;10.80;4.90;;;9.70;99.90;;;;;;5012736;28;20021;-77
2023/03/15 09:19:52;;;;;;;12.05;4.25;;;9.90;99.90;;;;;;5031062;28;20057;-83
2023/03/15 09:22:17;;;;;;;5.47;3.25;;;10.10;99.90;;;;;;5010914;28;20494;-83
2023/03/15 09:24:43;;;;;;;11.50;3.60;;;10.20;99.90;;;;;;5002007;28;20433;-82
2023/03/15 09:27:10;;;;;;;5.97;2.92;;;10.40;99.90;;;;;;4996971;28;20044;-83
2023/03/15 09:29:36;;;;;;;5.65;3.17;;;10.90;99.90;;;;;;4999765;28;20256;-83
2023/03/15 09:32:04;;;;;;;8.43;3.65;;;11.30;99.90;;;;;;5003291;28;20095;-85
2023/03/15 09:34:29;;;;;;;5.55;2.90;;;12.30;99.90;;;;;;5009816;28;20048;-91
2023/03/15 09:36:55;;;;;;;4.82;2.70;;;13.40;99.90;;;;;;5020697;28;20607;-85
2023/03/15 09:39:22;;;;;;;5.68;2.80;;;14.80;99.90;;;;;;5012337;28;20316;-83
2023/03/15 09:41:59;;;;;;;7.45;3.03;;;15.60;98.50;;;;;;4997758;28;20018;-85
2023/03/15 09:44:38;;;;;;;6.75;2.65;;;15.70;94.60;;;;;;4999767;28;20029;-83
2023/03/15 09:47:09;;;;;;;8.38;2.40;;;16.20;93.90;;;;;;5012252;28;20106;-85
2023/03/15 09:49:40;;;;;;;11.63;2.35;;;16.70;91.80;;;;;;4983224;28;20072;-85
2023/03/15 09:52:16;;;;;;;7.78;2.22;;;16.50;90.00;;;;;;4988965;28;20088;-80
2023/03/15 09:54:55;;;;;;;13.23;4.60;;;17.20;90.00;;;;;;4988262;28;20025;-78
2023/03/15 09:57:54;;;;;;;5.10;2.30;;;17.50;80.50;;;;;;5010518;28;20036;-83
2023/03/15 10:00:39;;;;;;;7.85;2.22;;;17.50;79.20;;;;;;4984487;28;20148;-83
2023/03/15 10:03:08;;;;;;;6.38;2.40;;;16.40;74.80;;;;;;5006466;28;20037;-84
2023/03/15 10:05:43;;;;;;;6.63;2.05;;;16.60;77.40;;;;;;5005118;28;20626;-82
2023/03/15 10:08:16;;;;;;;8.30;2.30;;;15.70;73.30;;;;;;5008540;28;20038;-83
2023/03/15 10:11:02;;;;;;;7.35;2.00;;;15.70;77.40;;;;;;5005606;28;20091;-84
2023/03/15 10:13:50;;;;;;;6.10;2.40;;;15.40;73.40;;;;;;4990716;28;20036;-82
2023/03/15 10:16:15;;;;;;;5.15;1.83;;;14.80;74.70;;;;;;5009468;28;20197;-83
2023/03/15 10:18:58;;;;;;;4.68;2.05;;;14.80;79.60;;;;;;5009056;28;20010;-84
2023/03/15 10:21:55;;;;;;;6.88;1.50;;;15.20;74.80;;;;;;5006795;28;20465;-82
2023/03/15 10:24:37;;;;;;;57.97;16.45;;;14.40;68.80;;;;;;5001288;28;20087;-84
2023/03/15 10:27:17;;;;;;;4.43;1.65;;;13.80;71.20;;;;;;4976469;28;20041;-83
2023/03/15 10:29:44;;;;;;;7.15;1.80;;;14.20;74.80;;;;;;5004391;28;20380;-83
2023/03/15 10:32:16;;;;;;;4.20;1.23;;;14.30;73.70;;;;;;4997322;28;20057;-83
2023/03/15 10:34:48;;;;;;;8.07;1.35;;;14.60;75.40;;;;;;4987639;28;20096;-83
2023/03/15 10:37:14;;;;;;;7.45;1.67;;;15.00;77.30;;;;;;5007197;28;20419;-83
2023/03/15 10:39:45;;;;;;;7.70;1.45;;;15.20;73.20;;;;;;4997397;28;20120;-84
2023/03/15 10:42:25;;;;;;;4.15;1.27;;;15.40;68.40;;;;;;4995910;28;20033;-83
2023/03/15 10:44:51;;;;;;;7.90;1.60;;;15.70;68.50;;;;;;4986601;28;20132;-84
2023/03/15 10:47:19;;;;;;;7.05;1.65;;;15.90;68.70;;;;;;5005356;28;20042;-84
2023/03/15 10:49:45;;;;;;;6.00;1.20;;;15.70;71.60;;;;;;4993339;28;20017;-84
2023/03/15 10:52:35;;;;;;;3.92;1.42;;;15.70;64.60;;;;;;4992575;28;20079;-84
2023/03/15 10:55:11;;;;;;;7.78;1.15;;;15.20;64.30;;;;;;4994902;28;20017;-85
2023/03/15 10:57:39;;;;;;;3.85;1.10;;;15.40;66.70;;;;;;4982770;28;20088;-79
2023/03/15 11:00:38;;;;;;;9.63;1.88;;;15.90;67.30;;;;;;4986129;28;20153;-81
2023/03/15 11:03:14;;;;;;;8.10;0.90;;;15.60;61.50;;;;;;4971382;28;20446;-84
2023/03/15 11:05:43;;;;;;;6.03;1.30;;;15.80;62.90;;;;;;5015211;28;20090;-84
2023/03/15 11:08:21;;;;;;;9.10;1.15;;;16.00;60.50;;;;;;5030199;28;20114;-83
2023/03/15 11:10:55;;;;;;;3.08;1.00;;;16.00;61.20;;;;;;5009774;28;20032;-85
2023/03/15 11:13:27;;;;;;;7.15;1.20;;;15.10;58.50;;;;;;5010136;28;20026;-84
2023/03/15 11:16:11;;;;;;;7.43;1.23;;;15.10;61.70;;;;;;5011254;28;20026;-85
2023/03/15 11:19:00;;;;;;;5.72;1.50;;;15.50;60.90;;;;;;5004938;28;20559;-83
2023/03/15 11:21:33;;;;;;;6.75;1.30;;;15.30;60.10;;;;;;5002571;28;20052;-82
2023/03/15 11:24:00;;;;;;;;;;;15.10;58.50;;;;;;5003803;28;20042;-85
2023/03/15 11:26:28;;;;;;;4.10;0.85;;;15.30;61.90;;;;;;4997818;28;19917;-84
2023/03/15 11:29:22;;;;;;;3.67;1.00;;;15.40;58.10;;;;;;5008673;28;20469;-85
2023/03/15 11:31:51;;;;;;;6.25;1.15;;;15.20;58.30;;;;;;4984451;28;20133;-83
2023/03/15 11:34:44;;;;;;;4.32;1.48;;;15.30;59.90;;;;;;4986508;28;20029;-84
2023/03/15 11:37:22;;;;;;;7.65;1.38;;;15.70;58.30;;;;;;4987542;28;20466;-84
2023/03/15 11:40:10;;;;;;;5.82;1.10;;;15.30;58.40;;;;;;5003010;28;20474;-82
2023/03/15 11:42:59;;;;;;;8.68;1.40;;;14.80;59.30;;;;;;5000532;28;20035;-82
2023/03/15 11:45:43;;;;;;;2.95;0.80;;;14.60;61.40;;;;;;4982078;28;20034;-83
2023/03/15 11:48:28;;;;;;;12.73;1.35;;;15.00;59.80;;;;;;5013936;28;20030;-83
2023/03/15 11:50:55;;;;;;;5.20;1.27;;;15.30;58.60;;;;;;5029832;28;20025;-84
2023/03/15 11:53:24;;;;;;;1.75;0.80;;;15.70;58.00;;;;;;5010164;28;20022;-83
2023/03/15 11:55:53;;;;;;;7.05;1.00;;;15.60;58.10;;;;;;5026004;28;20021;-82
2023/03/15 11:58:31;;;;;;;4.03;0.80;;;15.70;58.10;;;;;;5026493;28;20062;-83
2023/03/15 12:01:05;;;;;;;4.63;1.17;;;15.70;58.10;;;;;;5022343;28;20084;-82
2023/03/15 12:03:38;;;;;;;7.40;1.40;;;15.70;56.30;;;;;;5002281;28;20033;-83
2023/03/15 12:06:09;;;;;;;6.70;1.33;;;15.80;57.70;;;;;;5034428;28;20022;-83
2023/03/15 12:08:44;;;;;;;9.25;1.15;;;15.60;56.60;;;;;;5019643;28;20040;-83
2023/03/15 12:11:20;;;;;;;5.93;1.20;;;16.10;55.60;;;;;;5025868;28;20025;-83
2023/03/15 12:14:01;;;;;;;2.55;0.80;;;16.50;54.00;;;;;;5021460;28;20014;-82
2023/03/15 12:16:40;;;;;;;4.80;0.77;;;16.80;52.10;;;;;;5019737;28;20191;-84
2023/03/15 12:19:25;;;;;;;4.30;1.00;;;15.90;51.80;;;;;;5000107;28;20025;-84
2023/03/15 12:21:56;;;;;;;6.22;1.20;;;15.40;53.60;;;;;;5028915;28;20297;-83
2023/03/15 12:24:27;;;;;;;5.15;0.82;;;15.00;53.10;;;;;;4998207;28;20113;-83
2023/03/15 12:26:59;;;;;;;7.00;0.93;;;14.50;53.70;;;;;;5009691;28;20033;-83
2023/03/15 12:29:29;;;;;;;5.93;1.02;;;14.10;54.40;;;;;;4990687;28;20046;-82
2023/03/15 12:31:57;;;;;;;3.25;1.13;;;14.60;54.30;;;;;;4991285;28;20021;-83
2023/03/15 12:34:28;;;;;;;2.42;0.63;;;15.20;52.30;;;;;;4988646;28;20030;-82
2023/03/15 12:37:03;;;;;;;5.07;1.30;;;14.10;54.20;;;;;;5007765;28;20119;-83
2023/03/15 12:39:40;;;;;;;3.75;0.93;;;13.30;54.80;;;;;;4988911;28;20017;-83
2023/03/15 12:42:10;;;;;;;4.55;0.93;;;12.70;55.40;;;;;;4991607;28;20492;-83
2023/03/15 12:44:39;;;;;;;5.45;0.85;;;13.00;57.60;;;;;;4980783;28;20021;-82
2023/03/15 12:47:07;;;;;;;3.50;1.05;;;13.40;55.20;;;;;;4995622;28;20032;-81
2023/03/15 12:49:36;;;;;;;3.65;1.02;;;13.50;50.50;;;;;;4995403;28;20022;-82
2023/03/15 12:52:10;;;;;;;5.65;0.90;;;13.90;53.00;;;;;;4997340;28;20393;-81
2023/03/15 12:54:55;;;;;;;6.32;1.00;;;14.60;51.50;;;;;;5009237;28;20033;-82
2023/03/15 12:57:25;;;;;;;5.57;1.00;;;15.20;53.90;;;;;;4992306;28;20041;-82
2023/03/15 13:00:00;;;;;;;2.95;1.23;;;15.40;52.10;;;;;;5012873;28;20033;-83
2023/03/15 13:02:35;;;;;;;6.85;1.00;;;15.40;51.10;;;;;;5008031;28;20048;-82
2023/03/15 13:05:16;;;;;;;6.18;1.00;;;14.90;52.80;;;;;;5008507;28;20092;-82